sensor_id;sensor_type;location;lat;lon;timestamp;P1;durP1;ratioP1;P2;durP2;ratioP2
77968;SDS011;67161;0.000;0.000;2023-02-01T00:01:54;9.25;;;2.83;;
77968;SDS011;67161;0.000;0.000;2023-02-01T00:04:20;12.68;;;3.88;;
77968;SDS011;67161;0.000;0.000;2023-02-01T00:06:45;11.95;;;3.20;;
77968;SDS011;67161;0.000;0.000;2023-02-01T00:09:12;10.90;;;3.15;;
77968;SDS011;67161;0.000;0.000;2023-02-01T00:11:38;9.82;;;2.90;;
77968;SDS011;67161;0.000;0.000;2023-02-01T00:14:03;13.70;;;3.17;;
77968;SDS011;67161;0.000;0.000;2023-02-01T00:16:29;12.93;;;3.65;;
77968;SDS011;67161;0.000;0.000;2023-02-01T00:18:57;11.43;;;3.17;;
77968;SDS011;67161;0.000;0.000;2023-02-01T00:21:24;11.57;;;3.00;;
77968;SDS011;67161;0.000;0.000;2023-02-01T00:23:50;11.25;;;3.05;;
77968;SDS011;67161;0.000;0.000;2023-02-01T00:26:17;9.48;;;3.10;;
77968;SDS011;67161;0.000;0.000;2023-02-01T00:28:56;11.55;;;3.25;;
77968;SDS011;67161;0.000;0.000;2023-02-01T00:31:22;9.88;;;3.00;;
77968;SDS011;67161;0.000;0.000;2023-02-01T00:33:48;9.55;;;3.22;;
77968;SDS011;67161;0.000;0.000;2023-02-01T00:36:14;13.60;;;3.40;;
77968;SDS011;67161;0.000;0.000;2023-02-01T00:38:40;14.90;;;3.58;;
77968;SDS011;67161;0.000;0.000;2023-02-01T00:41:27;12.77;;;3.42;;
77968;SDS011;67161;0.000;0.000;2023-02-01T00:43:52;13.50;;;3.30;;
77968;SDS011;67161;0.000;0.000;2023-02-01T00:46:18;9.00;;;2.72;;
77968;SDS011;67161;0.000;0.000;2023-02-01T00:48:44;13.27;;;3.20;;
77968;SDS011;67161;0.000;0.000;2023-02-01T00:51:11;11.23;;;3.20;;
77968;SDS011;67161;0.000;0.000;2023-02-01T00:53:39;12.52;;;3.42;;
77968;SDS011;67161;0.000;0.000;2023-02-01T00:56:05;9.63;;;3.35;;
77968;SDS011;67161;0.000;0.000;2023-02-01T00:58:32;11.52;;;3.38;;
77968;SDS011;67161;0.000;0.000;2023-02-01T01:03:35;11.25;;;3.15;;
77968;SDS011;67161;0.000;0.000;2023-02-01T01:06:05;11.93;;;3.55;;
77968;SDS011;67161;0.000;0.000;2023-02-01T01:08:32;11.88;;;3.38;;
77968;SDS011;67161;0.000;0.000;2023-02-01T01:10:58;11.50;;;3.65;;
77968;SDS011;67161;0.000;0.000;2023-02-01T01:13:28;13.07;;;3.70;;
77968;SDS011;67161;0.000;0.000;2023-02-01T01:15:54;14.07;;;3.35;;
77968;SDS011;67161;0.000;0.000;2023-02-01T01:18:19;11.23;;;3.30;;
77968;SDS011;67161;0.000;0.000;2023-02-01T01:20:45;10.55;;;3.40;;
77968;SDS011;67161;0.000;0.000;2023-02-01T01:23:12;11.90;;;3.58;;
77968;SDS011;67161;0.000;0.000;2023-02-01T01:25:38;11.75;;;3.33;;
77968;SDS011;67161;0.000;0.000;2023-02-01T01:28:05;10.57;;;3.42;;
77968;SDS011;67161;0.000;0.000;2023-02-01T01:30:31;12.77;;;3.70;;
77968;SDS011;67161;0.000;0.000;2023-02-01T01:32:56;11.63;;;3.42;;
77968;SDS011;67161;0.000;0.000;2023-02-01T01:35:22;11.38;;;3.70;;
77968;SDS011;67161;0.000;0.000;2023-02-01T01:37:48;13.40;;;3.72;;
77968;SDS011;67161;0.000;0.000;2023-02-01T01:40:13;12.13;;;3.78;;
77968;SDS011;67161;0.000;0.000;2023-02-01T01:42:40;10.63;;;3.35;;
77968;SDS011;67161;0.000;0.000;2023-02-01T01:47:56;13.40;;;3.67;;
77968;SDS011;67161;0.000;0.000;2023-02-01T01:50:40;11.88;;;3.25;;
77968;SDS011;67161;0.000;0.000;2023-02-01T01:53:07;12.77;;;3.20;;
77968;SDS011;67161;0.000;0.000;2023-02-01T01:55:36;12.48;;;3.38;;
77968;SDS011;67161;0.000;0.000;2023-02-01T01:58:06;11.13;;;3.22;;
77968;SDS011;67161;0.000;0.000;2023-02-01T02:00:34;12.18;;;3.20;;
77968;SDS011;67161;0.000;0.000;2023-02-01T02:03:07;9.40;;;3.08;;
77968;SDS011;67161;0.000;0.000;2023-02-01T02:05:39;11.65;;;3.17;;
77968;SDS011;67161;0.000;0.000;2023-02-01T02:08:05;12.07;;;3.65;;
77968;SDS011;67161;0.000;0.000;2023-02-01T02:10:31;11.60;;;3.50;;
77968;SDS011;67161;0.000;0.000;2023-02-01T02:13:16;11.88;;;3.40;;
77968;SDS011;67161;0.000;0.000;2023-02-01T02:15:45;10.90;;;3.00;;
77968;SDS011;67161;0.000;0.000;2023-02-01T02:18:41;11.32;;;3.15;;
77968;SDS011;67161;0.000;0.000;2023-02-01T02:24:32;10.32;;;3.00;;
77968;SDS011;67161;0.000;0.000;2023-02-01T02:33:12;9.88;;;2.95;;
77968;SDS011;67161;0.000;0.000;2023-02-01T02:40:52;12.57;;;3.40;;
77968;SDS011;67161;0.000;0.000;2023-02-01T02:43:32;13.43;;;3.60;;
77968;SDS011;67161;0.000;0.000;2023-02-01T02:49:10;12.30;;;3.25;;
77968;SDS011;67161;0.000;0.000;2023-02-01T02:51:46;12.25;;;3.03;;
77968;SDS011;67161;0.000;0.000;2023-02-01T02:54:40;11.35;;;3.28;;
77968;SDS011;67161;0.000;0.000;2023-02-01T02:57:13;12.20;;;3.40;;
77968;SDS011;67161;0.000;0.000;2023-02-01T03:00:09;9.32;;;3.20;;
77968;SDS011;67161;0.000;0.000;2023-02-01T03:02:55;9.60;;;3.10;;
77968;SDS011;67161;0.000;0.000;2023-02-01T03:05:44;10.02;;;3.10;;
77968;SDS011;67161;0.000;0.000;2023-02-01T03:08:12;9.95;;;2.95;;
77968;SDS011;67161;0.000;0.000;2023-02-01T03:16:31;12.60;;;3.38;;
77968;SDS011;67161;0.000;0.000;2023-02-01T03:27:02;11.95;;;3.28;;
77968;SDS011;67161;0.000;0.000;2023-02-01T03:29:38;12.00;;;3.30;;
77968;SDS011;67161;0.000;0.000;2023-02-01T03:32:14;9.77;;;2.92;;
77968;SDS011;67161;0.000;0.000;2023-02-01T03:34:40;10.45;;;2.97;;
77968;SDS011;67161;0.000;0.000;2023-02-01T03:37:07;10.45;;;3.35;;
77968;SDS011;67161;0.000;0.000;2023-02-01T03:39:40;10.45;;;2.85;;
77968;SDS011;67161;0.000;0.000;2023-02-01T03:42:18;12.80;;;3.35;;
77968;SDS011;67161;0.000;0.000;2023-02-01T03:44:50;8.88;;;3.00;;
77968;SDS011;67161;0.000;0.000;2023-02-01T03:47:23;14.90;;;2.97;;
77968;SDS011;67161;0.000;0.000;2023-02-01T03:49:54;10.98;;;3.17;;
77968;SDS011;67161;0.000;0.000;2023-02-01T03:52:25;11.32;;;3.38;;
77968;SDS011;67161;0.000;0.000;2023-02-01T03:54:55;10.77;;;3.03;;
77968;SDS011;67161;0.000;0.000;2023-02-01T03:57:23;11.52;;;3.00;;
77968;SDS011;67161;0.000;0.000;2023-02-01T03:59:52;10.32;;;3.05;;
77968;SDS011;67161;0.000;0.000;2023-02-01T04:02:18;10.00;;;2.95;;
77968;SDS011;67161;0.000;0.000;2023-02-01T04:04:43;9.93;;;3.13;;
77968;SDS011;67161;0.000;0.000;2023-02-01T04:07:10;12.35;;;2.88;;
77968;SDS011;67161;0.000;0.000;2023-02-01T04:09:35;11.07;;;3.30;;
77968;SDS011;67161;0.000;0.000;2023-02-01T04:12:01;11.63;;;3.30;;
77968;SDS011;67161;0.000;0.000;2023-02-01T04:14:27;13.45;;;3.42;;
77968;SDS011;67161;0.000;0.000;2023-02-01T04:16:52;12.43;;;3.28;;
77968;SDS011;67161;0.000;0.000;2023-02-01T04:19:19;11.48;;;3.22;;
77968;SDS011;67161;0.000;0.000;2023-02-01T04:21:44;12.45;;;3.42;;
77968;SDS011;67161;0.000;0.000;2023-02-01T04:24:10;9.77;;;3.00;;
77968;SDS011;67161;0.000;0.000;2023-02-01T04:26:35;11.32;;;3.40;;
77968;SDS011;67161;0.000;0.000;2023-02-01T04:29:01;9.07;;;2.80;;
77968;SDS011;67161;0.000;0.000;2023-02-01T04:31:27;10.02;;;3.45;;
77968;SDS011;67161;0.000;0.000;2023-02-01T04:33:53;12.02;;;3.22;;
77968;SDS011;67161;0.000;0.000;2023-02-01T04:36:19;12.73;;;3.30;;
77968;SDS011;67161;0.000;0.000;2023-02-01T04:38:47;9.48;;;3.30;;
77968;SDS011;67161;0.000;0.000;2023-02-01T04:41:13;12.48;;;3.00;;
77968;SDS011;67161;0.000;0.000;2023-02-01T04:43:38;11.15;;;3.33;;
77968;SDS011;67161;0.000;0.000;2023-02-01T04:46:04;10.82;;;3.00;;
77968;SDS011;67161;0.000;0.000;2023-02-01T04:48:30;11.35;;;3.50;;
77968;SDS011;67161;0.000;0.000;2023-02-01T04:50:55;9.55;;;3.22;;
77968;SDS011;67161;0.000;0.000;2023-02-01T04:53:21;11.35;;;3.60;;
77968;SDS011;67161;0.000;0.000;2023-02-01T04:55:47;11.50;;;3.13;;
77968;SDS011;67161;0.000;0.000;2023-02-01T04:58:15;10.25;;;3.08;;
77968;SDS011;67161;0.000;0.000;2023-02-01T05:00:40;14.02;;;3.30;;
77968;SDS011;67161;0.000;0.000;2023-02-01T05:03:06;12.63;;;3.22;;
77968;SDS011;67161;0.000;0.000;2023-02-01T05:05:32;13.88;;;3.85;;
77968;SDS011;67161;0.000;0.000;2023-02-01T05:07:57;12.88;;;3.55;;
77968;SDS011;67161;0.000;0.000;2023-02-01T05:10:23;11.43;;;3.08;;
77968;SDS011;67161;0.000;0.000;2023-02-01T05:12:48;10.70;;;3.15;;
77968;SDS011;67161;0.000;0.000;2023-02-01T05:15:33;12.27;;;3.33;;
77968;SDS011;67161;0.000;0.000;2023-02-01T05:17:58;9.95;;;3.10;;
77968;SDS011;67161;0.000;0.000;2023-02-01T05:20:24;9.82;;;2.92;;
77968;SDS011;67161;0.000;0.000;2023-02-01T05:22:50;9.10;;;2.80;;
77968;SDS011;67161;0.000;0.000;2023-02-01T05:25:16;9.85;;;3.03;;
77968;SDS011;67161;0.000;0.000;2023-02-01T05:27:42;10.60;;;3.30;;
77968;SDS011;67161;0.000;0.000;2023-02-01T05:30:08;12.65;;;3.33;;
77968;SDS011;67161;0.000;0.000;2023-02-01T05:32:34;10.05;;;2.72;;
77968;SDS011;67161;0.000;0.000;2023-02-01T05:34:59;11.20;;;3.22;;
77968;SDS011;67161;0.000;0.000;2023-02-01T05:37:25;11.93;;;3.17;;
77968;SDS011;67161;0.000;0.000;2023-02-01T05:39:51;14.02;;;3.45;;
77968;SDS011;67161;0.000;0.000;2023-02-01T05:42:17;10.52;;;3.10;;
77968;SDS011;67161;0.000;0.000;2023-02-01T05:44:42;11.18;;;3.25;;
77968;SDS011;67161;0.000;0.000;2023-02-01T05:47:08;9.20;;;3.03;;
77968;SDS011;67161;0.000;0.000;2023-02-01T05:49:34;11.77;;;3.28;;
77968;SDS011;67161;0.000;0.000;2023-02-01T05:51:59;10.32;;;2.88;;
77968;SDS011;67161;0.000;0.000;2023-02-01T05:54:25;10.82;;;3.05;;
77968;SDS011;67161;0.000;0.000;2023-02-01T05:56:50;11.00;;;2.80;;
77968;SDS011;67161;0.000;0.000;2023-02-01T05:59:16;9.73;;;3.08;;
77968;SDS011;67161;0.000;0.000;2023-02-01T06:01:42;15.85;;;3.55;;
77968;SDS011;67161;0.000;0.000;2023-02-01T06:04:07;9.57;;;2.88;;
77968;SDS011;67161;0.000;0.000;2023-02-01T06:06:33;14.05;;;3.30;;
77968;SDS011;67161;0.000;0.000;2023-02-01T06:08:59;11.85;;;2.92;;
77968;SDS011;67161;0.000;0.000;2023-02-01T06:11:25;14.75;;;3.22;;
77968;SDS011;67161;0.000;0.000;2023-02-01T06:13:51;9.60;;;3.13;;
77968;SDS011;67161;0.000;0.000;2023-02-01T06:16:16;8.25;;;2.90;;
77968;SDS011;67161;0.000;0.000;2023-02-01T06:18:42;10.20;;;2.72;;
77968;SDS011;67161;0.000;0.000;2023-02-01T06:21:08;9.80;;;3.05;;
77968;SDS011;67161;0.000;0.000;2023-02-01T06:23:33;8.85;;;2.47;;
77968;SDS011;67161;0.000;0.000;2023-02-01T06:26:03;12.95;;;3.10;;
77968;SDS011;67161;0.000;0.000;2023-02-01T06:28:31;9.02;;;2.78;;
77968;SDS011;67161;0.000;0.000;2023-02-01T06:30:57;11.55;;;2.90;;
77968;SDS011;67161;0.000;0.000;2023-02-01T06:33:27;10.77;;;2.70;;
77968;SDS011;67161;0.000;0.000;2023-02-01T06:35:56;9.18;;;2.85;;
77968;SDS011;67161;0.000;0.000;2023-02-01T06:38:23;10.15;;;3.05;;
77968;SDS011;67161;0.000;0.000;2023-02-01T06:40:54;11.88;;;3.10;;
77968;SDS011;67161;0.000;0.000;2023-02-01T06:43:21;8.45;;;2.80;;
77968;SDS011;67161;0.000;0.000;2023-02-01T06:45:48;10.70;;;3.33;;
77968;SDS011;67161;0.000;0.000;2023-02-01T06:48:14;10.43;;;3.08;;
77968;SDS011;67161;0.000;0.000;2023-02-01T06:50:40;10.90;;;3.25;;
77968;SDS011;67161;0.000;0.000;2023-02-01T06:53:05;10.75;;;2.88;;
77968;SDS011;67161;0.000;0.000;2023-02-01T06:55:31;10.77;;;3.08;;
77968;SDS011;67161;0.000;0.000;2023-02-01T06:57:57;10.80;;;3.45;;
77968;SDS011;67161;0.000;0.000;2023-02-01T07:00:22;12.27;;;3.00;;
77968;SDS011;67161;0.000;0.000;2023-02-01T07:02:48;10.55;;;3.22;;
77968;SDS011;67161;0.000;0.000;2023-02-01T07:05:15;11.35;;;2.85;;
77968;SDS011;67161;0.000;0.000;2023-02-01T07:07:41;10.80;;;2.85;;
77968;SDS011;67161;0.000;0.000;2023-02-01T07:10:07;9.45;;;2.75;;
77968;SDS011;67161;0.000;0.000;2023-02-01T07:12:33;8.43;;;2.92;;
77968;SDS011;67161;0.000;0.000;2023-02-01T07:14:59;10.05;;;3.20;;
77968;SDS011;67161;0.000;0.000;2023-02-01T07:17:26;10.75;;;2.80;;
77968;SDS011;67161;0.000;0.000;2023-02-01T07:19:53;10.55;;;2.47;;
77968;SDS011;67161;0.000;0.000;2023-02-01T07:22:19;9.88;;;2.80;;
77968;SDS011;67161;0.000;0.000;2023-02-01T07:24:45;8.40;;;3.05;;
77968;SDS011;67161;0.000;0.000;2023-02-01T07:27:11;10.32;;;3.15;;
77968;SDS011;67161;0.000;0.000;2023-02-01T07:29:36;8.20;;;2.60;;
77968;SDS011;67161;0.000;0.000;2023-02-01T07:32:02;14.23;;;3.13;;
77968;SDS011;67161;0.000;0.000;2023-02-01T07:34:28;11.10;;;2.95;;
77968;SDS011;67161;0.000;0.000;2023-02-01T07:36:55;11.38;;;2.90;;
77968;SDS011;67161;0.000;0.000;2023-02-01T07:39:21;8.45;;;2.80;;
77968;SDS011;67161;0.000;0.000;2023-02-01T07:41:46;12.07;;;3.22;;
77968;SDS011;67161;0.000;0.000;2023-02-01T07:44:12;9.63;;;2.95;;
77968;SDS011;67161;0.000;0.000;2023-02-01T07:46:37;10.65;;;2.90;;
77968;SDS011;67161;0.000;0.000;2023-02-01T07:49:04;12.07;;;2.88;;
77968;SDS011;67161;0.000;0.000;2023-02-01T07:51:30;9.00;;;2.63;;
77968;SDS011;67161;0.000;0.000;2023-02-01T07:53:55;9.18;;;2.85;;
77968;SDS011;67161;0.000;0.000;2023-02-01T07:56:21;9.15;;;2.55;;
77968;SDS011;67161;0.000;0.000;2023-02-01T07:58:50;9.48;;;2.72;;
77968;SDS011;67161;0.000;0.000;2023-02-01T08:01:18;9.60;;;2.75;;
77968;SDS011;67161;0.000;0.000;2023-02-01T08:03:52;8.85;;;3.00;;
77968;SDS011;67161;0.000;0.000;2023-02-01T08:06:20;10.43;;;2.45;;
77968;SDS011;67161;0.000;0.000;2023-02-01T08:08:47;10.48;;;2.85;;
77968;SDS011;67161;0.000;0.000;2023-02-01T08:11:15;10.43;;;3.22;;
77968;SDS011;67161;0.000;0.000;2023-02-01T08:13:42;9.40;;;2.85;;
77968;SDS011;67161;0.000;0.000;2023-02-01T08:16:08;11.18;;;2.80;;
77968;SDS011;67161;0.000;0.000;2023-02-01T08:18:35;9.45;;;3.13;;
77968;SDS011;67161;0.000;0.000;2023-02-01T08:21:12;12.13;;;2.83;;
77968;SDS011;67161;0.000;0.000;2023-02-01T08:23:40;10.95;;;3.00;;
77968;SDS011;67161;0.000;0.000;2023-02-01T08:26:27;9.98;;;2.80;;
77968;SDS011;67161;0.000;0.000;2023-02-01T08:28:56;8.68;;;2.40;;
77968;SDS011;67161;0.000;0.000;2023-02-01T08:31:25;9.00;;;2.63;;
77968;SDS011;67161;0.000;0.000;2023-02-01T08:33:56;9.85;;;2.50;;
77968;SDS011;67161;0.000;0.000;2023-02-01T08:36:24;14.65;;;3.35;;
77968;SDS011;67161;0.000;0.000;2023-02-01T08:38:51;10.02;;;3.00;;
77968;SDS011;67161;0.000;0.000;2023-02-01T08:41:18;9.48;;;2.97;;
77968;SDS011;67161;0.000;0.000;2023-02-01T08:43:45;9.68;;;2.95;;
77968;SDS011;67161;0.000;0.000;2023-02-01T08:46:12;12.70;;;3.25;;
77968;SDS011;67161;0.000;0.000;2023-02-01T08:48:39;9.75;;;2.78;;
77968;SDS011;67161;0.000;0.000;2023-02-01T08:51:09;10.95;;;2.90;;
77968;SDS011;67161;0.000;0.000;2023-02-01T08:53:37;11.43;;;3.28;;
77968;SDS011;67161;0.000;0.000;2023-02-01T08:56:05;8.02;;;2.70;;
77968;SDS011;67161;0.000;0.000;2023-02-01T08:58:31;8.65;;;2.47;;
77968;SDS011;67161;0.000;0.000;2023-02-01T09:01:02;10.68;;;2.75;;
77968;SDS011;67161;0.000;0.000;2023-02-01T09:03:34;13.30;;;2.95;;
77968;SDS011;67161;0.000;0.000;2023-02-01T09:06:01;11.52;;;2.83;;
77968;SDS011;67161;0.000;0.000;2023-02-01T09:08:28;9.48;;;2.88;;
77968;SDS011;67161;0.000;0.000;2023-02-01T09:10:57;10.13;;;2.80;;
77968;SDS011;67161;0.000;0.000;2023-02-01T09:13:24;10.02;;;3.05;;
77968;SDS011;67161;0.000;0.000;2023-02-01T09:15:51;8.95;;;3.10;;
77968;SDS011;67161;0.000;0.000;2023-02-01T09:18:16;9.18;;;2.70;;
77968;SDS011;67161;0.000;0.000;2023-02-01T09:20:42;10.95;;;3.13;;
77968;SDS011;67161;0.000;0.000;2023-02-01T09:23:08;9.63;;;2.58;;
77968;SDS011;67161;0.000;0.000;2023-02-01T09:25:33;12.18;;;3.20;;
77968;SDS011;67161;0.000;0.000;2023-02-01T09:27:59;8.80;;;2.83;;
77968;SDS011;67161;0.000;0.000;2023-02-01T09:30:24;11.95;;;2.97;;
77968;SDS011;67161;0.000;0.000;2023-02-01T09:32:50;8.95;;;3.08;;
77968;SDS011;67161;0.000;0.000;2023-02-01T09:35:16;11.13;;;2.70;;
77968;SDS011;67161;0.000;0.000;2023-02-01T09:37:41;10.45;;;2.83;;
77968;SDS011;67161;0.000;0.000;2023-02-01T09:40:10;8.57;;;2.80;;
77968;SDS011;67161;0.000;0.000;2023-02-01T09:42:54;9.40;;;2.72;;
77968;SDS011;67161;0.000;0.000;2023-02-01T09:47:57;14.50;;;3.17;;
77968;SDS011;67161;0.000;0.000;2023-02-01T09:50:46;8.40;;;2.72;;
77968;SDS011;67161;0.000;0.000;2023-02-01T09:53:21;8.55;;;2.75;;
77968;SDS011;67161;0.000;0.000;2023-02-01T09:55:54;9.35;;;2.70;;
77968;SDS011;67161;0.000;0.000;2023-02-01T09:58:29;9.98;;;2.88;;
77968;SDS011;67161;0.000;0.000;2023-02-01T10:01:03;10.40;;;2.85;;
77968;SDS011;67161;0.000;0.000;2023-02-01T10:03:31;11.18;;;2.80;;
77968;SDS011;67161;0.000;0.000;2023-02-01T10:08:39;9.98;;;2.72;;
77968;SDS011;67161;0.000;0.000;2023-02-01T10:11:18;8.73;;;2.70;;
77968;SDS011;67161;0.000;0.000;2023-02-01T10:15:03;8.55;;;2.42;;
77968;SDS011;67161;0.000;0.000;2023-02-01T10:22:31;20.30;;;3.50;;
77968;SDS011;67161;0.000;0.000;2023-02-01T10:28:02;26.83;;;3.95;;
77968;SDS011;67161;0.000;0.000;2023-02-01T10:30:39;21.83;;;3.67;;
77968;SDS011;67161;0.000;0.000;2023-02-01T10:35:49;21.58;;;3.63;;
77968;SDS011;67161;0.000;0.000;2023-02-01T10:38:29;20.70;;;3.88;;
77968;SDS011;67161;0.000;0.000;2023-02-01T10:41:09;20.42;;;3.83;;
77968;SDS011;67161;0.000;0.000;2023-02-01T10:43:38;19.70;;;3.65;;
77968;SDS011;67161;0.000;0.000;2023-02-01T10:46:05;20.48;;;3.63;;
77968;SDS011;67161;0.000;0.000;2023-02-01T10:48:32;22.20;;;3.92;;
77968;SDS011;67161;0.000;0.000;2023-02-01T10:51:05;16.20;;;3.83;;
77968;SDS011;67161;0.000;0.000;2023-02-01T10:53:53;16.92;;;3.17;;
77968;SDS011;67161;0.000;0.000;2023-02-01T10:56:27;21.75;;;4.13;;
77968;SDS011;67161;0.000;0.000;2023-02-01T10:59:06;17.23;;;3.45;;
77968;SDS011;67161;0.000;0.000;2023-02-01T11:01:44;11.32;;;2.80;;
77968;SDS011;67161;0.000;0.000;2023-02-01T11:04:12;18.55;;;3.45;;
77968;SDS011;67161;0.000;0.000;2023-02-01T11:06:44;16.30;;;3.78;;
77968;SDS011;67161;0.000;0.000;2023-02-01T11:14:18;18.80;;;3.15;;
77968;SDS011;67161;0.000;0.000;2023-02-01T11:17:38;10.15;;;2.83;;
77968;SDS011;67161;0.000;0.000;2023-02-01T11:19:39;19.73;;;3.30;;
77968;SDS011;67161;0.000;0.000;2023-02-01T11:22:09;12.00;;;3.10;;
77968;SDS011;67161;0.000;0.000;2023-02-01T11:24:37;12.88;;;3.15;;
77968;SDS011;67161;0.000;0.000;2023-02-01T11:27:05;18.20;;;3.38;;
77968;SDS011;67161;0.000;0.000;2023-02-01T11:29:45;13.05;;;2.60;;
77968;SDS011;67161;0.000;0.000;2023-02-01T11:32:14;13.52;;;2.95;;
77968;SDS011;67161;0.000;0.000;2023-02-01T11:34:44;13.13;;;3.13;;
77968;SDS011;67161;0.000;0.000;2023-02-01T11:37:14;14.25;;;2.95;;
77968;SDS011;67161;0.000;0.000;2023-02-01T11:42:52;10.95;;;2.83;;
77968;SDS011;67161;0.000;0.000;2023-02-01T11:45:38;8.95;;;2.67;;
77968;SDS011;67161;0.000;0.000;2023-02-01T11:48:08;11.30;;;2.50;;
77968;SDS011;67161;0.000;0.000;2023-02-01T11:50:51;13.45;;;2.90;;
77968;SDS011;67161;0.000;0.000;2023-02-01T11:53:52;12.00;;;2.78;;
77968;SDS011;67161;0.000;0.000;2023-02-01T11:56:36;12.18;;;2.80;;
77968;SDS011;67161;0.000;0.000;2023-02-01T11:59:23;12.95;;;2.67;;
77968;SDS011;67161;0.000;0.000;2023-02-01T12:10:31;12.20;;;2.67;;
77968;SDS011;67161;0.000;0.000;2023-02-01T12:13:13;9.38;;;2.72;;
77968;SDS011;67161;0.000;0.000;2023-02-01T12:26:46;8.38;;;2.08;;
77968;SDS011;67161;0.000;0.000;2023-02-01T12:29:29;8.20;;;2.13;;
77968;SDS011;67161;0.000;0.000;2023-02-01T12:38:16;12.45;;;2.30;;
77968;SDS011;67161;0.000;0.000;2023-02-01T12:46:09;8.27;;;2.50;;
77968;SDS011;67161;0.000;0.000;2023-02-01T12:51:26;13.77;;;2.70;;
77968;SDS011;67161;0.000;0.000;2023-02-01T12:54:03;9.95;;;2.63;;
77968;SDS011;67161;0.000;0.000;2023-02-01T12:56:44;8.95;;;2.15;;
77968;SDS011;67161;0.000;0.000;2023-02-01T12:59:27;6.82;;;2.42;;
77968;SDS011;67161;0.000;0.000;2023-02-01T13:04:59;8.35;;;2.63;;
77968;SDS011;67161;0.000;0.000;2023-02-01T13:08:00;7.97;;;2.10;;
77968;SDS011;67161;0.000;0.000;2023-02-01T13:10:34;10.02;;;2.40;;
77968;SDS011;67161;0.000;0.000;2023-02-01T13:16:13;11.32;;;3.25;;
77968;SDS011;67161;0.000;0.000;2023-02-01T13:18:43;18.63;;;4.38;;
77968;SDS011;67161;0.000;0.000;2023-02-01T13:21:15;21.15;;;4.57;;
77968;SDS011;67161;0.000;0.000;2023-02-01T13:23:51;23.77;;;6.22;;
77968;SDS011;67161;0.000;0.000;2023-02-01T13:26:18;28.80;;;8.10;;
77968;SDS011;67161;0.000;0.000;2023-02-01T13:28:57;27.20;;;7.65;;
77968;SDS011;67161;0.000;0.000;2023-02-01T13:42:29;37.15;;;11.38;;
77968;SDS011;67161;0.000;0.000;2023-02-01T13:49:55;37.03;;;11.85;;
77968;SDS011;67161;0.000;0.000;2023-02-01T13:52:27;40.30;;;12.30;;
77968;SDS011;67161;0.000;0.000;2023-02-01T13:55:02;34.90;;;10.98;;
77968;SDS011;67161;0.000;0.000;2023-02-01T13:57:49;42.17;;;10.75;;
77968;SDS011;67161;0.000;0.000;2023-02-01T14:23:55;50.00;;;12.73;;
77968;SDS011;67161;0.000;0.000;2023-02-01T14:26:27;58.90;;;15.23;;
77968;SDS011;67161;0.000;0.000;2023-02-01T14:31:43;88.25;;;25.73;;
77968;SDS011;67161;0.000;0.000;2023-02-01T14:34:17;99.47;;;27.92;;
77968;SDS011;67161;0.000;0.000;2023-02-01T14:36:51;94.38;;;27.23;;
77968;SDS011;67161;0.000;0.000;2023-02-01T14:39:29;86.37;;;25.53;;
77968;SDS011;67161;0.000;0.000;2023-02-01T14:58:14;67.38;;;19.17;;
77968;SDS011;67161;0.000;0.000;2023-02-01T15:00:51;80.13;;;18.50;;
77968;SDS011;67161;0.000;0.000;2023-02-01T15:05:57;77.03;;;20.35;;
77968;SDS011;67161;0.000;0.000;2023-02-01T15:08:27;81.95;;;20.85;;
77968;SDS011;67161;0.000;0.000;2023-02-01T15:10:56;81.97;;;23.10;;
77968;SDS011;67161;0.000;0.000;2023-02-01T15:13:26;85.38;;;23.85;;
77968;SDS011;67161;0.000;0.000;2023-02-01T15:16:09;80.53;;;23.10;;
77968;SDS011;67161;0.000;0.000;2023-02-01T15:21:02;90.40;;;25.88;;
77968;SDS011;67161;0.000;0.000;2023-02-01T15:23:29;89.00;;;26.35;;
77968;SDS011;67161;0.000;0.000;2023-02-01T15:25:55;118.13;;;33.33;;
77968;SDS011;67161;0.000;0.000;2023-02-01T15:28:21;108.93;;;28.85;;
77968;SDS011;67161;0.000;0.000;2023-02-01T15:33:56;97.50;;;27.80;;
77968;SDS011;67161;0.000;0.000;2023-02-01T15:36:22;119.13;;;28.13;;
77968;SDS011;67161;0.000;0.000;2023-02-01T15:39:10;99.32;;;28.27;;
77968;SDS011;67161;0.000;0.000;2023-02-01T15:41:48;93.88;;;28.02;;
77968;SDS011;67161;0.000;0.000;2023-02-01T15:44:18;112.03;;;29.00;;
77968;SDS011;67161;0.000;0.000;2023-02-01T15:46:58;93.13;;;27.85;;
77968;SDS011;67161;0.000;0.000;2023-02-01T15:49:31;105.97;;;26.65;;
77968;SDS011;67161;0.000;0.000;2023-02-01T15:52:02;87.03;;;25.13;;
77968;SDS011;67161;0.000;0.000;2023-02-01T15:54:31;70.80;;;22.75;;
77968;SDS011;67161;0.000;0.000;2023-02-01T15:57:11;66.65;;;21.50;;
77968;SDS011;67161;0.000;0.000;2023-02-01T15:59:44;92.63;;;21.85;;
77968;SDS011;67161;0.000;0.000;2023-02-01T16:08:23;67.30;;;16.60;;
77968;SDS011;67161;0.000;0.000;2023-02-01T16:10:54;54.97;;;13.23;;
77968;SDS011;67161;0.000;0.000;2023-02-01T16:13:40;44.67;;;13.95;;
77968;SDS011;67161;0.000;0.000;2023-02-01T16:16:07;45.10;;;11.23;;
77968;SDS011;67161;0.000;0.000;2023-02-01T16:18:38;46.17;;;10.52;;
77968;SDS011;67161;0.000;0.000;2023-02-01T16:21:07;41.88;;;10.00;;
77968;SDS011;67161;0.000;0.000;2023-02-01T16:23:34;44.65;;;11.10;;
77968;SDS011;67161;0.000;0.000;2023-02-01T16:26:00;38.03;;;9.95;;
77968;SDS011;67161;0.000;0.000;2023-02-01T16:28:26;38.45;;;9.70;;
77968;SDS011;67161;0.000;0.000;2023-02-01T16:30:51;33.65;;;8.90;;
77968;SDS011;67161;0.000;0.000;2023-02-01T16:33:18;35.10;;;8.43;;
77968;SDS011;67161;0.000;0.000;2023-02-01T16:35:47;29.55;;;7.80;;
77968;SDS011;67161;0.000;0.000;2023-02-01T16:38:14;36.55;;;7.57;;
77968;SDS011;67161;0.000;0.000;2023-02-01T16:40:43;24.40;;;6.25;;
77968;SDS011;67161;0.000;0.000;2023-02-01T16:43:14;29.48;;;6.43;;
77968;SDS011;67161;0.000;0.000;2023-02-01T16:45:40;26.10;;;6.40;;
77968;SDS011;67161;0.000;0.000;2023-02-01T16:48:17;30.73;;;7.00;;
77968;SDS011;67161;0.000;0.000;2023-02-01T16:50:50;21.63;;;5.93;;
77968;SDS011;67161;0.000;0.000;2023-02-01T16:53:21;23.47;;;5.50;;
77968;SDS011;67161;0.000;0.000;2023-02-01T16:55:48;21.52;;;5.60;;
77968;SDS011;67161;0.000;0.000;2023-02-01T16:58:15;26.00;;;5.78;;
77968;SDS011;67161;0.000;0.000;2023-02-01T17:00:42;23.77;;;5.68;;
77968;SDS011;67161;0.000;0.000;2023-02-01T17:03:09;21.95;;;5.30;;
77968;SDS011;67161;0.000;0.000;2023-02-01T17:05:41;22.88;;;5.38;;
77968;SDS011;67161;0.000;0.000;2023-02-01T17:08:11;22.15;;;5.40;;
77968;SDS011;67161;0.000;0.000;2023-02-01T17:10:39;22.67;;;5.45;;
77968;SDS011;67161;0.000;0.000;2023-02-01T17:13:05;20.42;;;5.53;;
77968;SDS011;67161;0.000;0.000;2023-02-01T17:15:33;25.23;;;5.20;;
77968;SDS011;67161;0.000;0.000;2023-02-01T17:18:00;17.98;;;5.05;;
77968;SDS011;67161;0.000;0.000;2023-02-01T17:20:29;16.20;;;4.60;;
77968;SDS011;67161;0.000;0.000;2023-02-01T17:22:59;15.77;;;4.47;;
77968;SDS011;67161;0.000;0.000;2023-02-01T17:25:25;14.93;;;4.50;;
77968;SDS011;67161;0.000;0.000;2023-02-01T17:27:53;13.85;;;3.88;;
77968;SDS011;67161;0.000;0.000;2023-02-01T17:30:18;18.75;;;4.90;;
77968;SDS011;67161;0.000;0.000;2023-02-01T17:32:44;16.73;;;4.13;;
77968;SDS011;67161;0.000;0.000;2023-02-01T17:35:20;21.50;;;5.03;;
77968;SDS011;67161;0.000;0.000;2023-02-01T17:37:47;17.13;;;4.13;;
77968;SDS011;67161;0.000;0.000;2023-02-01T17:40:14;18.55;;;4.43;;
77968;SDS011;67161;0.000;0.000;2023-02-01T17:42:40;15.88;;;4.05;;
77968;SDS011;67161;0.000;0.000;2023-02-01T17:47:45;14.65;;;3.72;;
77968;SDS011;67161;0.000;0.000;2023-02-01T17:50:12;16.00;;;3.83;;
77968;SDS011;67161;0.000;0.000;2023-02-01T17:52:38;14.82;;;3.90;;
77968;SDS011;67161;0.000;0.000;2023-02-01T17:55:14;13.38;;;3.97;;
77968;SDS011;67161;0.000;0.000;2023-02-01T17:57:43;14.52;;;4.13;;
77968;SDS011;67161;0.000;0.000;2023-02-01T18:00:08;15.57;;;3.83;;
77968;SDS011;67161;0.000;0.000;2023-02-01T18:02:37;18.70;;;3.72;;